Robert E. Mcallister — WDC8669 — position and weather

sailwx.info

Track history (hours):
 
Tides and Currents Weather Stations Pressure Air Temp Water Temp Dewpoint Dewpoint Depression Visibility Wind Speed Wind Dir Waves Ship Positions

Robert E. Mcallister

Owner: McAllister Towing & Transportation, Staten Island, NY. More information available from US FCC via Universal Licensing System and Coast Guard Vessel Documentation Center.

Last reported at 2015-Jan-26 19:33 UTC. Time now 2015-Jan-26 20:32 UTC.
Position N 40°38' W 074°10'.

Length 34 m; draft 4.3 m.

Type: Tug. MMSI: 367091120.

Date/timePositionNaut miles runAvg speedWind from/ knotsBaromVisibWave heightAir tempDewpointWater temp
2015-Jan-26 19:33N 40°38' W 074°10'0 0.0
2015-Jan-26 18:33N 40°38' W 074°10'0 0.0
2015-Jan-26 17:33N 40°38' W 074°10'0 0.0
2015-Jan-26 16:33N 40°38' W 074°10'1 0.9
2015-Jan-26 15:33N 40°38' W 074°09'2 2.5
2015-Jan-26 14:33N 40°39' W 074°05'1 1.4
2015-Jan-26 13:33N 40°40' W 074°04'1 0.7
2015-Jan-26 12:33N 40°40' W 074°05'3 3.2
2015-Jan-26 11:33N 40°38' W 074°03'2 2.4
2015-Jan-26 10:33N 40°40' W 074°04'1 0.9
2015-Jan-26 09:33N 40°39' W 074°04'4 4.1
2015-Jan-26 08:31N 40°38' W 074°10'0 0.0
2015-Jan-26 07:33N 40°38' W 074°10'0 0.0
2015-Jan-26 06:33N 40°38' W 074°10'0 0.0
2015-Jan-26 05:20N 40°38' W 074°10'0 0.0
2015-Jan-26 04:22N 40°38' W 074°10'0 0.0
2015-Jan-26 03:27N 40°38' W 074°10'1 0.6
2015-Jan-26 02:32N 40°39' W 074°09'2 1.7
2015-Jan-26 01:33N 40°40' W 074°08'2 2.1
2015-Jan-26 00:30N 40°38' W 074°10'0 0.0
2015-Jan-25 23:34N 40°38' W 074°10'0 0.0
2015-Jan-25 22:34N 40°38' W 074°10'0 0.0
2015-Jan-25 21:33N 40°38' W 074°10'0 0.0
2015-Jan-25 20:34N 40°38' W 074°10'0 0.0
2015-Jan-25 19:34N 40°38' W 074°10'0 0.0
2015-Jan-25 18:34N 40°38' W 074°10'0 0.0
2015-Jan-25 17:34N 40°38' W 074°10'0 0.0
2015-Jan-25 16:33N 40°38' W 074°10'1 1.4
2015-Jan-25 15:32N 40°39' W 074°09'2 2.1
2015-Jan-25 14:31N 40°42' W 074°08'3 3.5
2015-Jan-25 13:33N 40°38' W 074°10'4 4.1
2015-Jan-25 12:33N 40°40' W 074°05'0 0.3
2015-Jan-25 11:33N 40°40' W 074°05'3 3.3
2015-Jan-25 10:33N 40°38' W 074°03'5 5.1
2015-Jan-25 09:33N 40°38' W 074°10'0 0.2
2015-Jan-25 08:33N 40°38' W 074°10'0 0.0
2015-Jan-25 06:26N 40°38' W 074°10'0 0.0
2015-Jan-25 05:13N 40°38' W 074°10'0 0.0
2015-Jan-25 04:16N 40°38' W 074°10'0 0.0
2015-Jan-25 03:28N 40°38' W 074°10'0 0.0
2015-Jan-25 02:27N 40°38' W 074°10'3 1.7
2015-Jan-25 00:33N 40°39' W 074°06'2 1.6
2015-Jan-24 23:33N 40°40' W 074°04'0 0.3
2015-Jan-24 22:33N 40°40' W 074°04'1 1.4
2015-Jan-24 21:33N 40°39' W 074°03'0 0.2
2015-Jan-24 20:33N 40°39' W 074°03'4 4.2
2015-Jan-24 19:31N 40°40' W 074°08'2 1.7
2015-Jan-24 18:33N 40°39' W 074°09'4 4.4
2015-Jan-24 17:33N 40°37' W 074°03'4 4.4
2015-Jan-24 16:33N 40°38' W 074°09'1 1.0
2015-Jan-24 15:22N 40°40' W 074°09'0 0.0
2015-Jan-24 14:30N 40°40' W 074°09'1 0.6
2015-Jan-24 12:27N 40°38' W 074°10'2 0.8
2015-Jan-24 10:13N 40°38' W 074°12'2 0.8
2015-Jan-24 08:12N 40°38' W 074°10'0 0.0
2015-Jan-24 07:17N 40°38' W 074°10'0 0.0
2015-Jan-24 05:13N 40°38' W 074°10'2 2.3
2015-Jan-24 04:33N 40°40' W 074°09'2 2.1
2015-Jan-24 03:33N 40°42' W 074°09'0 0.0
2015-Jan-24 02:33N 40°42' W 074°09'0 0.0
2015-Jan-24 01:33N 40°42' W 074°09'2 1.7
2015-Jan-24 00:31N 40°40' W 074°08'5 5.1
2015-Jan-23 23:33N 40°36' W 074°12'3 3.0
2015-Jan-23 22:33N 40°39' W 074°10'4 3.8
2015-Jan-23 21:33N 40°39' W 074°05'3 3.1
2015-Jan-23 20:33N 40°40' W 074°09'0 0.0
2015-Jan-23 19:33N 40°40' W 074°09'0 0.0
2015-Jan-23 18:33N 40°40' W 074°09'2 1.7
2015-Jan-23 17:16N 40°42' W 074°09'3 4.7
2015-Jan-23 16:33N 40°38' W 074°10'0 0.2
2015-Jan-23 15:33N 40°38' W 074°10'0 0.0
2015-Jan-23 14:33N 40°38' W 074°10'0 0.0
2015-Jan-23 13:32N 40°38' W 074°10'0 0.0
2015-Jan-23 12:33N 40°38' W 074°10'0 0.0
2015-Jan-23 11:33N 40°38' W 074°10'1 1.3
2015-Jan-23 10:33N 40°39' W 074°09'1 1.4
2015-Jan-23 09:33N 40°41' W 074°09'2 2.4
2015-Jan-23 08:31N 40°38' W 074°10'0 0.0
2015-Jan-23 06:20N 40°38' W 074°10'1 1.0
2015-Jan-23 05:28N 40°39' W 074°11'4 4.1
2015-Jan-23 04:30N 40°35' W 074°13'1 0.7
2015-Jan-23 03:31N 40°36' W 074°12'3 3.4
2015-Jan-23 02:33N 40°38' W 074°10'0 0.0
2015-Jan-23 01:33N 40°38' W 074°10'3 2.9
2015-Jan-23 00:22N 40°42' W 074°08'3 3.9
2015-Jan-22 23:33N 40°39' W 074°07'1 0.8
2015-Jan-22 22:33N 40°39' W 074°06'1 0.8
2015-Jan-22 21:32N 40°39' W 074°07'1 0.9
2015-Jan-22 20:33N 40°39' W 074°06'0 0.4
2015-Jan-22 19:33N 40°39' W 074°06'3 2.6
2015-Jan-22 18:21N 40°38' W 074°10'0 0.0
2015-Jan-22 17:17N 40°38' W 074°10'3 0.5
2015-Jan-22 12:12N 40°37' W 074°12'3 4.1
2015-Jan-22 11:33N 40°38' W 074°10'0 0.0
2015-Jan-22 10:33N 40°38' W 074°10'0 0.0
2015-Jan-22 09:33N 40°38' W 074°10'0 0.0
2015-Jan-22 08:33N 40°38' W 074°10'0 0.0
2015-Jan-22 07:33N 40°38' W 074°10'0 0.0
2015-Jan-22 06:33N 40°38' W 074°10'0 0.0
2015-Jan-22 05:33N 40°38' W 074°10'0 0.0
2015-Jan-22 04:33N 40°38' W 074°10'0 0.0
2015-Jan-22 03:34N 40°38' W 074°10'0 0.0
2015-Jan-22 02:33N 40°38' W 074°10'0 0.0
2015-Jan-22 01:33N 40°38' W 074°10'0 0.0
2015-Jan-22 00:33N 40°38' W 074°10'0 0.0
2015-Jan-21 23:33N 40°38' W 074°10'0 0.0
2015-Jan-21 22:50N 40°38' W 074°10'0 0.0
2015-Jan-21 22:46N 40°38' W 074°10'0 0.0
2015-Jan-21 22:33N 40°38' W 074°10'4 4.4
2015-Jan-21 21:33N 40°39' W 074°04'2 1.6
2015-Jan-21 20:33N 40°40' W 074°05'4 4.0
2015-Jan-21 19:31N 40°38' W 074°10'0 0.0
2015-Jan-21 18:33N 40°38' W 074°10'0 0.0
2015-Jan-21 17:31N 40°38' W 074°10'0 0.0
2015-Jan-21 16:29N 40°38' W 074°10'0 0.0
2015-Jan-21 15:30N 40°38' W 074°10'2 1.8
2015-Jan-21 14:33N 40°38' W 074°12'0 0.2
2015-Jan-21 13:29N 40°38' W 074°12'4 3.9
2015-Jan-21 12:31N 40°39' W 074°07'3 3.5
2015-Jan-21 11:33N 40°38' W 074°03'4 3.5
2015-Jan-21 10:33N 40°39' W 074°08'1 1.3
2015-Jan-21 09:33N 40°39' W 074°06'6 2.8
2015-Jan-21 07:20N 40°35' W 074°12'4 4.8
2015-Jan-21 06:33N 40°38' W 074°10'0 0.0
2015-Jan-21 05:33N 40°38' W 074°10'0 0.0
2015-Jan-21 04:33N 40°38' W 074°10'0 0.0
2015-Jan-21 03:33N 40°38' W 074°10'0 0.0
2015-Jan-21 02:33N 40°38' W 074°10'0 0.0
2015-Jan-21 01:26N 40°38' W 074°10'0 0.0
2015-Jan-21 00:25N 40°38' W 074°10'3 1.8
2015-Jan-20 22:33N 40°42' W 074°08'0 0.0
2015-Jan-20 21:31N 40°41' W 074°08'0 0.4
2015-Jan-20 20:31N 40°41' W 074°08'0 0.5
2015-Jan-20 19:31N 40°41' W 074°09'1 1.1
2015-Jan-20 18:19N 40°40' W 074°09'0 0.0
2015-Jan-20 17:33N 40°40' W 074°09'0 0.0
2015-Jan-20 16:31N 40°40' W 074°09'0 0.0
2015-Jan-20 14:31N 40°40' W 074°09'1 0.8
2015-Jan-20 13:33N 40°40' W 074°08'3 2.7
2015-Jan-20 12:34N 40°39' W 074°05'2 1.9
2015-Jan-20 11:34N 40°38' W 074°03'5 5.0
2015-Jan-20 10:32N 40°41' W 074°09'4 4.4
2015-Jan-20 09:34N 40°39' W 074°04'5 2.2
2015-Jan-20 07:29N 40°38' W 074°10'2 2.6
2015-Jan-20 06:33N 40°41' W 074°09'2 2.2
2015-Jan-20 05:32N 40°39' W 074°08'3 3.2
2015-Jan-20 04:34N 40°40' W 074°05'1 0.5
2015-Jan-20 03:33N 40°40' W 074°04'6 6.3
2015-Jan-20 02:33N 40°44' W 073°58'3 2.7
2015-Jan-20 01:22N 40°47' W 073°55'5 6.7
2015-Jan-20 00:34N 40°42' W 073°59'7 7.0
2015-Jan-19 23:33N 40°39' W 074°07'2 1.9
2015-Jan-19 22:30N 40°38' W 074°10'3 2.6
2015-Jan-19 21:30N 40°41' W 074°09'2 2.6
2015-Jan-19 20:33N 40°39' W 074°08'1 0.5
2015-Jan-19 18:24N 40°40' W 074°09'0 0.0
2015-Jan-19 17:27N 40°40' W 074°09'0 0.0
2015-Jan-19 16:11N 40°40' W 074°09'0 0.0
2015-Jan-19 15:32N 40°40' W 074°09'0 0.3
2015-Jan-19 14:32N 40°40' W 074°09'0 0.4
2015-Jan-19 13:33N 40°39' W 074°09'1 0.6
2015-Jan-19 12:32N 40°40' W 074°09'0 0.3
2015-Jan-19 11:31N 40°40' W 074°08'2 1.8
2015-Jan-19 10:33N 40°38' W 074°09'1 0.7
2015-Jan-19 09:32N 40°38' W 074°10'0 0.0
2015-Jan-19 08:04N 40°38' W 074°10'0 0.0
2015-Jan-19 07:03N 40°38' W 074°10'0 0.0
2015-Jan-19 06:29N 40°38' W 074°10'0 0.0
2015-Jan-19 05:28N 40°38' W 074°10'0 0.0
2015-Jan-19 04:18N 40°38' W 074°10'0 0.0
2015-Jan-19 03:23N 40°38' W 074°10'1 1.0
2015-Jan-19 02:31N 40°39' W 074°09'1 0.9
2015-Jan-19 01:33N 40°39' W 074°08'3 3.1
2015-Jan-19 00:33N 40°40' W 074°04'0 0.0
2015-Jan-18 23:33N 40°40' W 074°04'0 0.0
2015-Jan-18 22:33N 40°40' W 074°04'0 0.0
2015-Jan-18 21:33N 40°40' W 074°04'0 0.0
2015-Jan-18 20:33N 40°40' W 074°04'0 0.0
2015-Jan-18 19:33N 40°40' W 074°04'0 0.0
2015-Jan-18 18:33N 40°40' W 074°04'0 0.0
2015-Jan-18 17:33N 40°40' W 074°04'0 0.0
2015-Jan-18 16:33N 40°40' W 074°04'0 0.0
2015-Jan-18 15:32N 40°40' W 074°04'0 0.0
2015-Jan-18 14:32N 40°40' W 074°04'0 0.4
2015-Jan-18 13:33N 40°40' W 074°05'0 0.4
2015-Jan-18 12:33N 40°40' W 074°04'0 0.0
2015-Jan-18 11:33N 40°40' W 074°04'0 0.0
2015-Jan-18 10:33N 40°40' W 074°04'0 0.0
2015-Jan-18 09:33N 40°40' W 074°04'0 0.0
2015-Jan-18 08:33N 40°40' W 074°04'0 0.0
2015-Jan-18 07:33N 40°40' W 074°04'0 0.0
2015-Jan-18 06:33N 40°40' W 074°04'0 0.3
2015-Jan-18 05:33N 40°40' W 074°04'0 0.4
2015-Jan-18 04:33N 40°40' W 074°05'1 0.7
2015-Jan-18 03:33N 40°40' W 074°04'11 5.0
2015-Jan-18 01:17N 40°32' W 074°15'4 3.5
2015-Jan-18 00:05N 40°36' W 074°12'2 4.0
2015-Jan-17 23:30N 40°38' W 074°12'2 1.8
2015-Jan-17 22:28N 40°38' W 074°10'0 0.0
2015-Jan-17 21:32N 40°38' W 074°10'0 0.0
2015-Jan-17 20:32N 40°38' W 074°10'0 0.0
2015-Jan-17 19:31N 40°38' W 074°10'0 0.0
2015-Jan-17 18:30N 40°38' W 074°10'0 0.0
2015-Jan-17 17:30N 40°38' W 074°10'0 0.0
2015-Jan-17 16:27N 40°38' W 074°10'0 0.0
2015-Jan-17 15:33N 40°38' W 074°10'0 0.0
2015-Jan-17 14:31N 40°38' W 074°10'3 2.9
2015-Jan-17 13:33N 40°41' W 074°08'1 0.5
2015-Jan-17 12:32N 40°41' W 074°08'2 1.9
2015-Jan-17 11:33N 40°39' W 074°09'1 1.5
2015-Jan-17 10:33N 40°40' W 074°08'4 4.5
2015-Jan-17 09:33N 40°38' W 074°03'5 5.1
2015-Jan-17 08:33N 40°38' W 074°10'0 0.0
2015-Jan-17 07:33N 40°38' W 074°10'0 0.0
2015-Jan-17 06:28N 40°38' W 074°10'2 1.1
2015-Jan-17 04:33N 40°39' W 074°07'2 1.6
2015-Jan-17 03:33N 40°39' W 074°05'1 1.0
2015-Jan-17 02:32N 40°40' W 074°05'3 3.4
2015-Jan-17 01:33N 40°37' W 074°03'3 2.8
2015-Jan-17 00:33N 40°40' W 074°04'0 0.4
2015-Jan-16 23:33N 40°40' W 074°05'1 0.6
2015-Jan-16 22:33N 40°40' W 074°04'10 4.6
2015-Jan-16 20:29N 40°33' W 074°13'  
Track history (hours):
 
Tides and Currents Weather Stations Pressure Air Temp Water Temp Dewpoint Dewpoint Depression Visibility Wind Speed Wind Dir Waves Ship Positions

Robert E. Mcallister

Owner: McAllister Towing & Transportation, Staten Island, NY. More information available from US FCC via Universal Licensing System and Coast Guard Vessel Documentation Center.

Last reported at 2015-Jan-26 19:33 UTC. Time now 2015-Jan-26 20:32 UTC.
Position N 40°38' W 074°10'.

Length 34 m; draft 4.3 m.

Type: Tug. MMSI: 367091120.

Date/timePositionNaut miles runAvg speedWind from/ knotsBaromVisibWave heightAir tempDewpointWater temp
2015-Jan-26 19:33N 40°38' W 074°10'0 0.0
2015-Jan-26 18:33N 40°38' W 074°10'0 0.0
2015-Jan-26 17:33N 40°38' W 074°10'0 0.0
2015-Jan-26 16:33N 40°38' W 074°10'1 0.9
2015-Jan-26 15:33N 40°38' W 074°09'2 2.5
2015-Jan-26 14:33N 40°39' W 074°05'1 1.4
2015-Jan-26 13:33N 40°40' W 074°04'1 0.7
2015-Jan-26 12:33N 40°40' W 074°05'3 3.2
2015-Jan-26 11:33N 40°38' W 074°03'2 2.4
2015-Jan-26 10:33N 40°40' W 074°04'1 0.9
2015-Jan-26 09:33N 40°39' W 074°04'4 4.1
2015-Jan-26 08:31N 40°38' W 074°10'0 0.0
2015-Jan-26 07:33N 40°38' W 074°10'0 0.0
2015-Jan-26 06:33N 40°38' W 074°10'0 0.0
2015-Jan-26 05:20N 40°38' W 074°10'0 0.0
2015-Jan-26 04:22N 40°38' W 074°10'0 0.0
2015-Jan-26 03:27N 40°38' W 074°10'1 0.6
2015-Jan-26 02:32N 40°39' W 074°09'2 1.7
2015-Jan-26 01:33N 40°40' W 074°08'2 2.1
2015-Jan-26 00:30N 40°38' W 074°10'0 0.0
2015-Jan-25 23:34N 40°38' W 074°10'0 0.0
2015-Jan-25 22:34N 40°38' W 074°10'0 0.0
2015-Jan-25 21:33N 40°38' W 074°10'0 0.0
2015-Jan-25 20:34N 40°38' W 074°10'0 0.0
2015-Jan-25 19:34N 40°38' W 074°10'0 0.0
2015-Jan-25 18:34N 40°38' W 074°10'0 0.0
2015-Jan-25 17:34N 40°38' W 074°10'0 0.0
2015-Jan-25 16:33N 40°38' W 074°10'1 1.4
2015-Jan-25 15:32N 40°39' W 074°09'2 2.1
2015-Jan-25 14:31N 40°42' W 074°08'3 3.5
2015-Jan-25 13:33N 40°38' W 074°10'4 4.1
2015-Jan-25 12:33N 40°40' W 074°05'0 0.3
2015-Jan-25 11:33N 40°40' W 074°05'3 3.3
2015-Jan-25 10:33N 40°38' W 074°03'5 5.1
2015-Jan-25 09:33N 40°38' W 074°10'0 0.2
2015-Jan-25 08:33N 40°38' W 074°10'0 0.0
2015-Jan-25 06:26N 40°38' W 074°10'0 0.0
2015-Jan-25 05:13N 40°38' W 074°10'0 0.0
2015-Jan-25 04:16N 40°38' W 074°10'0 0.0
2015-Jan-25 03:28N 40°38' W 074°10'0 0.0
2015-Jan-25 02:27N 40°38' W 074°10'3 1.7
2015-Jan-25 00:33N 40°39' W 074°06'2 1.6
2015-Jan-24 23:33N 40°40' W 074°04'0 0.3
2015-Jan-24 22:33N 40°40' W 074°04'1 1.4
2015-Jan-24 21:33N 40°39' W 074°03'0 0.2
2015-Jan-24 20:33N 40°39' W 074°03'4 4.2
2015-Jan-24 19:31N 40°40' W 074°08'2 1.7
2015-Jan-24 18:33N 40°39' W 074°09'4 4.4
2015-Jan-24 17:33N 40°37' W 074°03'4 4.4
2015-Jan-24 16:33N 40°38' W 074°09'1 1.0
2015-Jan-24 15:22N 40°40' W 074°09'0 0.0
2015-Jan-24 14:30N 40°40' W 074°09'1 0.6
2015-Jan-24 12:27N 40°38' W 074°10'2 0.8
2015-Jan-24 10:13N 40°38' W 074°12'2 0.8
2015-Jan-24 08:12N 40°38' W 074°10'0 0.0
2015-Jan-24 07:17N 40°38' W 074°10'0 0.0
2015-Jan-24 05:13N 40°38' W 074°10'2 2.3
2015-Jan-24 04:33N 40°40' W 074°09'2 2.1
2015-Jan-24 03:33N 40°42' W 074°09'0 0.0
2015-Jan-24 02:33N 40°42' W 074°09'0 0.0
2015-Jan-24 01:33N 40°42' W 074°09'2 1.7
2015-Jan-24 00:31N 40°40' W 074°08'5 5.1
2015-Jan-23 23:33N 40°36' W 074°12'3 3.0
2015-Jan-23 22:33N 40°39' W 074°10'4 3.8
2015-Jan-23 21:33N 40°39' W 074°05'3 3.1
2015-Jan-23 20:33N 40°40' W 074°09'0 0.0
2015-Jan-23 19:33N 40°40' W 074°09'0 0.0
2015-Jan-23 18:33N 40°40' W 074°09'2 1.7
2015-Jan-23 17:16N 40°42' W 074°09'3 4.7
2015-Jan-23 16:33N 40°38' W 074°10'0 0.2
2015-Jan-23 15:33N 40°38' W 074°10'0 0.0
2015-Jan-23 14:33N 40°38' W 074°10'0 0.0
2015-Jan-23 13:32N 40°38' W 074°10'0 0.0
2015-Jan-23 12:33N 40°38' W 074°10'0 0.0
2015-Jan-23 11:33N 40°38' W 074°10'1 1.3
2015-Jan-23 10:33N 40°39' W 074°09'1 1.4
2015-Jan-23 09:33N 40°41' W 074°09'2 2.4
2015-Jan-23 08:31N 40°38' W 074°10'0 0.0
2015-Jan-23 06:20N 40°38' W 074°10'1 1.0
2015-Jan-23 05:28N 40°39' W 074°11'4 4.1
2015-Jan-23 04:30N 40°35' W 074°13'1 0.7
2015-Jan-23 03:31N 40°36' W 074°12'3 3.4
2015-Jan-23 02:33N 40°38' W 074°10'0 0.0
2015-Jan-23 01:33N 40°38' W 074°10'3 2.9
2015-Jan-23 00:22N 40°42' W 074°08'3 3.9
2015-Jan-22 23:33N 40°39' W 074°07'1 0.8
2015-Jan-22 22:33N 40°39' W 074°06'1 0.8
2015-Jan-22 21:32N 40°39' W 074°07'1 0.9
2015-Jan-22 20:33N 40°39' W 074°06'0 0.4
2015-Jan-22 19:33N 40°39' W 074°06'3 2.6
2015-Jan-22 18:21N 40°38' W 074°10'0 0.0
2015-Jan-22 17:17N 40°38' W 074°10'3 0.5
2015-Jan-22 12:12N 40°37' W 074°12'3 4.1
2015-Jan-22 11:33N 40°38' W 074°10'0 0.0
2015-Jan-22 10:33N 40°38' W 074°10'0 0.0
2015-Jan-22 09:33N 40°38' W 074°10'0 0.0
2015-Jan-22 08:33N 40°38' W 074°10'0 0.0
2015-Jan-22 07:33N 40°38' W 074°10'0 0.0
2015-Jan-22 06:33N 40°38' W 074°10'0 0.0
2015-Jan-22 05:33N 40°38' W 074°10'0 0.0
2015-Jan-22 04:33N 40°38' W 074°10'0 0.0
2015-Jan-22 03:34N 40°38' W 074°10'0 0.0
2015-Jan-22 02:33N 40°38' W 074°10'0 0.0
2015-Jan-22 01:33N 40°38' W 074°10'0 0.0
2015-Jan-22 00:33N 40°38' W 074°10'0 0.0
2015-Jan-21 23:33N 40°38' W 074°10'0 0.0
2015-Jan-21 22:50N 40°38' W 074°10'0 0.0
2015-Jan-21 22:46N 40°38' W 074°10'0 0.0
2015-Jan-21 22:33N 40°38' W 074°10'4 4.4
2015-Jan-21 21:33N 40°39' W 074°04'2 1.6
2015-Jan-21 20:33N 40°40' W 074°05'4 4.0
2015-Jan-21 19:31N 40°38' W 074°10'0 0.0
2015-Jan-21 18:33N 40°38' W 074°10'0 0.0
2015-Jan-21 17:31N 40°38' W 074°10'0 0.0
2015-Jan-21 16:29N 40°38' W 074°10'0 0.0
2015-Jan-21 15:30N 40°38' W 074°10'2 1.8
2015-Jan-21 14:33N 40°38' W 074°12'0 0.2
2015-Jan-21 13:29N 40°38' W 074°12'4 3.9
2015-Jan-21 12:31N 40°39' W 074°07'3 3.5
2015-Jan-21 11:33N 40°38' W 074°03'4 3.5
2015-Jan-21 10:33N 40°39' W 074°08'1 1.3
2015-Jan-21 09:33N 40°39' W 074°06'6 2.8
2015-Jan-21 07:20N 40°35' W 074°12'4 4.8
2015-Jan-21 06:33N 40°38' W 074°10'0 0.0
2015-Jan-21 05:33N 40°38' W 074°10'0 0.0
2015-Jan-21 04:33N 40°38' W 074°10'0 0.0
2015-Jan-21 03:33N 40°38' W 074°10'0 0.0
2015-Jan-21 02:33N 40°38' W 074°10'0 0.0
2015-Jan-21 01:26N 40°38' W 074°10'0 0.0
2015-Jan-21 00:25N 40°38' W 074°10'3 1.8
2015-Jan-20 22:33N 40°42' W 074°08'0 0.0
2015-Jan-20 21:31N 40°41' W 074°08'0 0.4
2015-Jan-20 20:31N 40°41' W 074°08'0 0.5
2015-Jan-20 19:31N 40°41' W 074°09'1 1.1
2015-Jan-20 18:19N 40°40' W 074°09'0 0.0
2015-Jan-20 17:33N 40°40' W 074°09'0 0.0
2015-Jan-20 16:31N 40°40' W 074°09'0 0.0
2015-Jan-20 14:31N 40°40' W 074°09'1 0.8
2015-Jan-20 13:33N 40°40' W 074°08'3 2.7
2015-Jan-20 12:34N 40°39' W 074°05'2 1.9
2015-Jan-20 11:34N 40°38' W 074°03'5 5.0
2015-Jan-20 10:32N 40°41' W 074°09'4 4.4
2015-Jan-20 09:34N 40°39' W 074°04'5 2.2
2015-Jan-20 07:29N 40°38' W 074°10'2 2.6
2015-Jan-20 06:33N 40°41' W 074°09'2 2.2
2015-Jan-20 05:32N 40°39' W 074°08'3 3.2
2015-Jan-20 04:34N 40°40' W 074°05'1 0.5
2015-Jan-20 03:33N 40°40' W 074°04'6 6.3
2015-Jan-20 02:33N 40°44' W 073°58'3 2.7
2015-Jan-20 01:22N 40°47' W 073°55'5 6.7
2015-Jan-20 00:34N 40°42' W 073°59'7 7.0
2015-Jan-19 23:33N 40°39' W 074°07'2 1.9
2015-Jan-19 22:30N 40°38' W 074°10'3 2.6
2015-Jan-19 21:30N 40°41' W 074°09'2 2.6
2015-Jan-19 20:33N 40°39' W 074°08'1 0.5
2015-Jan-19 18:24N 40°40' W 074°09'0 0.0
2015-Jan-19 17:27N 40°40' W 074°09'0 0.0
2015-Jan-19 16:11N 40°40' W 074°09'0 0.0
2015-Jan-19 15:32N 40°40' W 074°09'0 0.3
2015-Jan-19 14:32N 40°40' W 074°09'0 0.4
2015-Jan-19 13:33N 40°39' W 074°09'1 0.6
2015-Jan-19 12:32N 40°40' W 074°09'0 0.3
2015-Jan-19 11:31N 40°40' W 074°08'2 1.8
2015-Jan-19 10:33N 40°38' W 074°09'1 0.7
2015-Jan-19 09:32N 40°38' W 074°10'0 0.0
2015-Jan-19 08:04N 40°38' W 074°10'0 0.0
2015-Jan-19 07:03N 40°38' W 074°10'0 0.0
2015-Jan-19 06:29N 40°38' W 074°10'0 0.0
2015-Jan-19 05:28N 40°38' W 074°10'0 0.0
2015-Jan-19 04:18N 40°38' W 074°10'0 0.0
2015-Jan-19 03:23N 40°38' W 074°10'1 1.0
2015-Jan-19 02:31N 40°39' W 074°09'1 0.9
2015-Jan-19 01:33N 40°39' W 074°08'3 3.1
2015-Jan-19 00:33N 40°40' W 074°04'0 0.0
2015-Jan-18 23:33N 40°40' W 074°04'0 0.0
2015-Jan-18 22:33N 40°40' W 074°04'0 0.0
2015-Jan-18 21:33N 40°40' W 074°04'0 0.0
2015-Jan-18 20:33N 40°40' W 074°04'0 0.0
2015-Jan-18 19:33N 40°40' W 074°04'0 0.0
2015-Jan-18 18:33N 40°40' W 074°04'0 0.0
2015-Jan-18 17:33N 40°40' W 074°04'0 0.0
2015-Jan-18 16:33N 40°40' W 074°04'0 0.0
2015-Jan-18 15:32N 40°40' W 074°04'0 0.0
2015-Jan-18 14:32N 40°40' W 074°04'0 0.4
2015-Jan-18 13:33N 40°40' W 074°05'0 0.4
2015-Jan-18 12:33N 40°40' W 074°04'0 0.0
2015-Jan-18 11:33N 40°40' W 074°04'0 0.0
2015-Jan-18 10:33N 40°40' W 074°04'0 0.0
2015-Jan-18 09:33N 40°40' W 074°04'0 0.0
2015-Jan-18 08:33N 40°40' W 074°04'0 0.0
2015-Jan-18 07:33N 40°40' W 074°04'0 0.0
2015-Jan-18 06:33N 40°40' W 074°04'0 0.3
2015-Jan-18 05:33N 40°40' W 074°04'0 0.4
2015-Jan-18 04:33N 40°40' W 074°05'1 0.7
2015-Jan-18 03:33N 40°40' W 074°04'11 5.0
2015-Jan-18 01:17N 40°32' W 074°15'4 3.5
2015-Jan-18 00:05N 40°36' W 074°12'2 4.0
2015-Jan-17 23:30N 40°38' W 074°12'2 1.8
2015-Jan-17 22:28N 40°38' W 074°10'0 0.0
2015-Jan-17 21:32N 40°38' W 074°10'0 0.0
2015-Jan-17 20:32N 40°38' W 074°10'0 0.0
2015-Jan-17 19:31N 40°38' W 074°10'0 0.0
2015-Jan-17 18:30N 40°38' W 074°10'0 0.0
2015-Jan-17 17:30N 40°38' W 074°10'0 0.0
2015-Jan-17 16:27N 40°38' W 074°10'0 0.0
2015-Jan-17 15:33N 40°38' W 074°10'0 0.0
2015-Jan-17 14:31N 40°38' W 074°10'3 2.9
2015-Jan-17 13:33N 40°41' W 074°08'1 0.5
2015-Jan-17 12:32N 40°41' W 074°08'2 1.9
2015-Jan-17 11:33N 40°39' W 074°09'1 1.5
2015-Jan-17 10:33N 40°40' W 074°08'4 4.5
2015-Jan-17 09:33N 40°38' W 074°03'5 5.1
2015-Jan-17 08:33N 40°38' W 074°10'0 0.0
2015-Jan-17 07:33N 40°38' W 074°10'0 0.0
2015-Jan-17 06:28N 40°38' W 074°10'2 1.1
2015-Jan-17 04:33N 40°39' W 074°07'2 1.6
2015-Jan-17 03:33N 40°39' W 074°05'1 1.0
2015-Jan-17 02:32N 40°40' W 074°05'3 3.4
2015-Jan-17 01:33N 40°37' W 074°03'3 2.8
2015-Jan-17 00:33N 40°40' W 074°04'0 0.4
2015-Jan-16 23:33N 40°40' W 074°05'1 0.6
2015-Jan-16 22:33N 40°40' W 074°04'10 4.6
2015-Jan-16 20:29N 40°33' W 074°13'  

Dump ship's entire track history